sensor_id;sensor_type;location;lat;lon;timestamp;pressure;altitude;pressure_sealevel;temperature;humidity
30819;BME280;17546;42.674;23.284;2024-01-30T00:01:26;96643.53;;;6.75;36.27
30819;BME280;17546;42.674;23.284;2024-01-30T00:03:51;96668.94;;;7.56;35.52
30819;BME280;17546;42.674;23.284;2024-01-30T00:06:20;96654.38;;;7.02;35.76
30819;BME280;17546;42.674;23.284;2024-01-30T00:08:49;96658.75;;;7.00;36.06
30819;BME280;17546;42.674;23.284;2024-01-30T00:11:15;96668.63;;;7.17;36.03
30819;BME280;17546;42.674;23.284;2024-01-30T00:13:41;96660.34;;;7.17;35.93
30819;BME280;17546;42.674;23.284;2024-01-30T00:16:07;96669.34;;;7.38;35.65
30819;BME280;17546;42.674;23.284;2024-01-30T00:18:34;96618.00;;;6.91;35.67
30819;BME280;17546;42.674;23.284;2024-01-30T00:21:00;96668.84;;;7.43;35.57
30819;BME280;17546;42.674;23.284;2024-01-30T00:23:25;96660.06;;;7.12;35.90
30819;BME280;17546;42.674;23.284;2024-01-30T00:25:51;96671.38;;;7.17;36.13
30819;BME280;17546;42.674;23.284;2024-01-30T00:28:16;96628.06;;;6.81;36.28
30819;BME280;17546;42.674;23.284;2024-01-30T00:30:42;96641.91;;;7.14;35.79
30819;BME280;17546;42.674;23.284;2024-01-30T00:33:08;96673.50;;;7.46;35.24
30819;BME280;17546;42.674;23.284;2024-01-30T00:35:33;96666.22;;;7.19;35.78
30819;BME280;17546;42.674;23.284;2024-01-30T00:37:59;96651.16;;;7.24;35.84
30819;BME280;17546;42.674;23.284;2024-01-30T00:40:24;96619.88;;;7.47;35.27
30819;BME280;17546;42.674;23.284;2024-01-30T00:42:50;96669.19;;;7.78;35.43
30819;BME280;17546;42.674;23.284;2024-01-30T00:45:16;96645.28;;;7.38;35.56
30819;BME280;17546;42.674;23.284;2024-01-30T00:47:43;96619.31;;;7.03;35.37
30819;BME280;17546;42.674;23.284;2024-01-30T00:50:08;96665.47;;;6.79;36.12
30819;BME280;17546;42.674;23.284;2024-01-30T00:52:34;96646.41;;;7.24;35.85
30819;BME280;17546;42.674;23.284;2024-01-30T00:55:01;96664.38;;;7.65;35.30
30819;BME280;17546;42.674;23.284;2024-01-30T00:57:26;96642.91;;;7.73;34.98
30819;BME280;17546;42.674;23.284;2024-01-30T00:59:52;96619.97;;;7.76;35.11
30819;BME280;17546;42.674;23.284;2024-01-30T01:02:18;96625.22;;;7.87;35.06
30819;BME280;17546;42.674;23.284;2024-01-30T01:04:44;96648.56;;;7.82;35.04
30819;BME280;17546;42.674;23.284;2024-01-30T01:07:10;96661.50;;;8.18;34.92
30819;BME280;17546;42.674;23.284;2024-01-30T01:09:36;96666.41;;;8.27;34.94
30819;BME280;17546;42.674;23.284;2024-01-30T01:12:02;96612.28;;;7.84;34.80
30819;BME280;17546;42.674;23.284;2024-01-30T01:14:28;96623.69;;;8.15;34.62
30819;BME280;17546;42.674;23.284;2024-01-30T01:16:53;96643.00;;;8.32;34.44
30819;BME280;17546;42.674;23.284;2024-01-30T01:19:19;96665.50;;;8.46;34.27
30819;BME280;17546;42.674;23.284;2024-01-30T01:21:44;96620.50;;;8.17;34.71
30819;BME280;17546;42.674;23.284;2024-01-30T01:24:10;96650.22;;;8.42;34.39
30819;BME280;17546;42.674;23.284;2024-01-30T01:26:35;96623.31;;;8.30;34.38
30819;BME280;17546;42.674;23.284;2024-01-30T01:29:01;96667.19;;;8.57;34.26
30819;BME280;17546;42.674;23.284;2024-01-30T01:31:27;96665.13;;;8.61;34.41
30819;BME280;17546;42.674;23.284;2024-01-30T01:33:55;96622.66;;;8.25;34.62
30819;BME280;17546;42.674;23.284;2024-01-30T01:36:20;96645.31;;;8.50;34.56
30819;BME280;17546;42.674;23.284;2024-01-30T01:38:46;96675.28;;;8.64;34.44
30819;BME280;17546;42.674;23.284;2024-01-30T01:41:11;96662.59;;;8.66;34.22
30819;BME280;17546;42.674;23.284;2024-01-30T01:43:37;96672.84;;;8.66;34.11
30819;BME280;17546;42.674;23.284;2024-01-30T01:46:05;96631.34;;;8.24;34.41
30819;BME280;17546;42.674;23.284;2024-01-30T01:48:31;96624.81;;;8.18;34.54
30819;BME280;17546;42.674;23.284;2024-01-30T01:50:57;96655.22;;;8.01;34.70
30819;BME280;17546;42.674;23.284;2024-01-30T01:53:23;96610.03;;;7.95;34.37
30819;BME280;17546;42.674;23.284;2024-01-30T01:55:49;96657.09;;;8.21;34.59
30819;BME280;17546;42.674;23.284;2024-01-30T01:58:14;96665.63;;;8.10;34.64
30819;BME280;17546;42.674;23.284;2024-01-30T02:00:41;96674.19;;;8.16;34.55
30819;BME280;17546;42.674;23.284;2024-01-30T02:03:09;96671.00;;;8.01;34.42
30819;BME280;17546;42.674;23.284;2024-01-30T02:05:38;96621.88;;;7.79;34.60
30819;BME280;17546;42.674;23.284;2024-01-30T02:08:05;96619.28;;;7.72;34.58
30819;BME280;17546;42.674;23.284;2024-01-30T02:10:30;96619.44;;;7.16;35.07
30819;BME280;17546;42.674;23.284;2024-01-30T02:12:56;96631.34;;;7.45;34.86
30819;BME280;17546;42.674;23.284;2024-01-30T02:15:21;96638.84;;;7.61;34.79
30819;BME280;17546;42.674;23.284;2024-01-30T02:17:47;96672.38;;;7.43;35.54
30819;BME280;17546;42.674;23.284;2024-01-30T02:20:12;96672.91;;;7.02;35.92
30819;BME280;17546;42.674;23.284;2024-01-30T02:22:40;96627.03;;;6.92;35.34
30819;BME280;17546;42.674;23.284;2024-01-30T02:25:06;96662.88;;;6.92;35.88
30819;BME280;17546;42.674;23.284;2024-01-30T02:27:32;96668.28;;;7.15;35.30
30819;BME280;17546;42.674;23.284;2024-01-30T02:29:57;96668.34;;;6.55;36.30
30819;BME280;17546;42.674;23.284;2024-01-30T02:32:23;96618.66;;;6.19;36.31
30819;BME280;17546;42.674;23.284;2024-01-30T02:34:48;96650.09;;;6.41;37.00
30819;BME280;17546;42.674;23.284;2024-01-30T02:37:13;96658.81;;;6.96;36.29
30819;BME280;17546;42.674;23.284;2024-01-30T02:39:39;96616.63;;;6.63;36.11
30819;BME280;17546;42.674;23.284;2024-01-30T02:42:05;96637.31;;;6.71;35.96
30819;BME280;17546;42.674;23.284;2024-01-30T02:44:30;96668.53;;;6.85;36.24
30819;BME280;17546;42.674;23.284;2024-01-30T02:46:56;96629.78;;;6.35;36.59
30819;BME280;17546;42.674;23.284;2024-01-30T02:49:21;96655.81;;;6.91;36.09
30819;BME280;17546;42.674;23.284;2024-01-30T02:51:47;96665.22;;;7.10;36.21
30819;BME280;17546;42.674;23.284;2024-01-30T02:54:12;96617.75;;;6.66;36.18
30819;BME280;17546;42.674;23.284;2024-01-30T02:56:38;96627.38;;;6.57;36.02
30819;BME280;17546;42.674;23.284;2024-01-30T02:59:03;96673.13;;;6.08;37.53
30819;BME280;17546;42.674;23.284;2024-01-30T03:01:29;96602.91;;;5.99;36.88
30819;BME280;17546;42.674;23.284;2024-01-30T03:03:54;96617.47;;;6.80;36.14
30819;BME280;17546;42.674;23.284;2024-01-30T03:06:20;96647.56;;;7.07;35.98
30819;BME280;17546;42.674;23.284;2024-01-30T03:08:45;96668.47;;;7.24;35.75
30819;BME280;17546;42.674;23.284;2024-01-30T03:11:11;96654.31;;;7.22;35.22
30819;BME280;17546;42.674;23.284;2024-01-30T03:13:36;96640.53;;;7.06;35.45
30819;BME280;17546;42.674;23.284;2024-01-30T03:16:02;96661.41;;;7.40;35.19
30819;BME280;17546;42.674;23.284;2024-01-30T03:18:28;96647.31;;;7.54;35.08
30819;BME280;17546;42.674;23.284;2024-01-30T03:20:53;96641.53;;;6.96;35.90
30819;BME280;17546;42.674;23.284;2024-01-30T03:23:19;96641.97;;;6.74;35.78
30819;BME280;17546;42.674;23.284;2024-01-30T03:25:44;96662.47;;;6.33;36.63
30819;BME280;17546;42.674;23.284;2024-01-30T03:28:10;96651.28;;;6.80;35.84
30819;BME280;17546;42.674;23.284;2024-01-30T03:30:35;96654.78;;;7.01;35.64
30819;BME280;17546;42.674;23.284;2024-01-30T03:33:01;96658.72;;;7.20;35.00
30819;BME280;17546;42.674;23.284;2024-01-30T03:35:26;96639.34;;;7.23;35.20
30819;BME280;17546;42.674;23.284;2024-01-30T03:37:52;96628.22;;;6.54;35.72
30819;BME280;17546;42.674;23.284;2024-01-30T03:40:17;96647.75;;;7.00;35.47
30819;BME280;17546;42.674;23.284;2024-01-30T03:42:43;96644.28;;;7.49;34.85
30819;BME280;17546;42.674;23.284;2024-01-30T03:45:08;96647.31;;;7.54;34.32
30819;BME280;17546;42.674;23.284;2024-01-30T03:47:34;96640.09;;;6.51;35.37
30819;BME280;17546;42.674;23.284;2024-01-30T03:49:59;96638.19;;;7.04;34.87
30819;BME280;17546;42.674;23.284;2024-01-30T03:52:25;96641.53;;;5.92;36.50
30819;BME280;17546;42.674;23.284;2024-01-30T03:54:50;96641.00;;;6.65;35.52
30819;BME280;17546;42.674;23.284;2024-01-30T03:57:16;96599.34;;;6.43;34.49
30819;BME280;17546;42.674;23.284;2024-01-30T03:59:42;96640.81;;;6.92;34.58
30819;BME280;17546;42.674;23.284;2024-01-30T04:02:08;96611.84;;;7.03;34.45
30819;BME280;17546;42.674;23.284;2024-01-30T04:04:34;96621.06;;;7.13;34.02
30819;BME280;17546;42.674;23.284;2024-01-30T04:07:00;96594.59;;;6.63;34.48
30819;BME280;17546;42.674;23.284;2024-01-30T04:09:25;96631.03;;;7.07;34.33
30819;BME280;17546;42.674;23.284;2024-01-30T04:11:53;96630.22;;;7.27;34.31
30819;BME280;17546;42.674;23.284;2024-01-30T04:14:19;96636.34;;;7.67;33.91
30819;BME280;17546;42.674;23.284;2024-01-30T04:16:45;96639.47;;;7.53;34.10
30819;BME280;17546;42.674;23.284;2024-01-30T04:19:10;96623.34;;;7.35;34.11
30819;BME280;17546;42.674;23.284;2024-01-30T04:21:36;96627.66;;;7.52;33.67
30819;BME280;17546;42.674;23.284;2024-01-30T04:24:01;96625.91;;;7.26;34.48
30819;BME280;17546;42.674;23.284;2024-01-30T04:26:27;96619.13;;;6.37;34.87
30819;BME280;17546;42.674;23.284;2024-01-30T04:28:53;96597.16;;;6.54;34.66
30819;BME280;17546;42.674;23.284;2024-01-30T04:31:18;96634.00;;;7.33;34.14
30819;BME280;17546;42.674;23.284;2024-01-30T04:33:44;96642.59;;;7.18;34.18
30819;BME280;17546;42.674;23.284;2024-01-30T04:36:09;96635.34;;;6.52;34.65
30819;BME280;17546;42.674;23.284;2024-01-30T04:38:40;96638.75;;;6.59;34.73
30819;BME280;17546;42.674;23.284;2024-01-30T04:41:06;96593.03;;;6.82;34.42
30819;BME280;17546;42.674;23.284;2024-01-30T04:43:32;96647.34;;;6.81;34.34
30819;BME280;17546;42.674;23.284;2024-01-30T04:45:58;96645.44;;;6.78;34.57
30819;BME280;17546;42.674;23.284;2024-01-30T04:48:23;96573.41;;;6.60;34.69
30819;BME280;17546;42.674;23.284;2024-01-30T04:50:49;96655.84;;;6.71;34.88
30819;BME280;17546;42.674;23.284;2024-01-30T04:53:14;96656.94;;;6.93;34.52
30819;BME280;17546;42.674;23.284;2024-01-30T04:55:40;96668.78;;;7.10;34.01
30819;BME280;17546;42.674;23.284;2024-01-30T04:58:05;96669.94;;;7.29;34.32
30819;BME280;17546;42.674;23.284;2024-01-30T05:00:31;96666.81;;;7.27;34.24
30819;BME280;17546;42.674;23.284;2024-01-30T05:02:56;96627.94;;;7.05;33.92
30819;BME280;17546;42.674;23.284;2024-01-30T05:05:22;96673.66;;;7.39;33.50
30819;BME280;17546;42.674;23.284;2024-01-30T05:07:47;96657.50;;;6.85;34.16
30819;BME280;17546;42.674;23.284;2024-01-30T05:10:13;96680.06;;;6.79;34.60
30819;BME280;17546;42.674;23.284;2024-01-30T05:12:39;96671.09;;;6.75;34.85
30819;BME280;17546;42.674;23.284;2024-01-30T05:15:09;96674.03;;;6.45;35.16
30819;BME280;17546;42.674;23.284;2024-01-30T05:17:34;96673.06;;;6.95;34.41
30819;BME280;17546;42.674;23.284;2024-01-30T05:20:00;96666.91;;;6.87;34.62
30819;BME280;17546;42.674;23.284;2024-01-30T05:22:25;96649.13;;;6.52;35.58
30819;BME280;17546;42.674;23.284;2024-01-30T05:24:51;96686.38;;;6.96;34.80
30819;BME280;17546;42.674;23.284;2024-01-30T05:27:16;96689.78;;;7.04;34.82
30819;BME280;17546;42.674;23.284;2024-01-30T05:29:42;96685.19;;;6.97;34.72
30819;BME280;17546;42.674;23.284;2024-01-30T05:32:07;96670.31;;;7.11;34.51
30819;BME280;17546;42.674;23.284;2024-01-30T05:34:33;96684.34;;;6.60;34.90
30819;BME280;17546;42.674;23.284;2024-01-30T05:36:58;96661.47;;;6.63;35.92
30819;BME280;17546;42.674;23.284;2024-01-30T05:39:24;96627.03;;;6.35;35.90
30819;BME280;17546;42.674;23.284;2024-01-30T05:41:49;96673.25;;;6.00;36.42
30819;BME280;17546;42.674;23.284;2024-01-30T05:44:15;96685.53;;;5.96;37.10
30819;BME280;17546;42.674;23.284;2024-01-30T05:46:40;96631.97;;;6.24;35.60
30819;BME280;17546;42.674;23.284;2024-01-30T05:49:06;96658.44;;;5.91;36.82
30819;BME280;17546;42.674;23.284;2024-01-30T05:51:31;96635.44;;;5.57;35.68
30819;BME280;17546;42.674;23.284;2024-01-30T05:53:57;96649.31;;;6.21;36.02
30819;BME280;17546;42.674;23.284;2024-01-30T05:56:23;96676.16;;;6.57;35.36
30819;BME280;17546;42.674;23.284;2024-01-30T05:58:48;96648.56;;;6.60;35.22
30819;BME280;17546;42.674;23.284;2024-01-30T06:01:15;96625.53;;;6.71;34.97
30819;BME280;17546;42.674;23.284;2024-01-30T06:03:41;96664.97;;;7.04;34.91
30819;BME280;17546;42.674;23.284;2024-01-30T06:06:08;96640.69;;;6.99;35.01
30819;BME280;17546;42.674;23.284;2024-01-30T06:08:34;96666.22;;;7.19;35.05
30819;BME280;17546;42.674;23.284;2024-01-30T06:11:00;96665.94;;;7.14;34.54
30819;BME280;17546;42.674;23.284;2024-01-30T06:13:25;96685.06;;;6.85;34.61
30819;BME280;17546;42.674;23.284;2024-01-30T06:15:51;96655.28;;;6.39;34.73
30819;BME280;17546;42.674;23.284;2024-01-30T06:18:17;96660.72;;;5.49;36.39
30819;BME280;17546;42.674;23.284;2024-01-30T06:20:42;96660.81;;;6.16;35.05
30819;BME280;17546;42.674;23.284;2024-01-30T06:23:08;96665.38;;;6.03;35.58
30819;BME280;17546;42.674;23.284;2024-01-30T06:25:33;96653.16;;;5.80;35.31
30819;BME280;17546;42.674;23.284;2024-01-30T06:27:59;96678.00;;;5.73;36.39
30819;BME280;17546;42.674;23.284;2024-01-30T06:30:24;96649.78;;;5.92;35.78
30819;BME280;17546;42.674;23.284;2024-01-30T06:32:50;96688.44;;;5.85;35.49
30819;BME280;17546;42.674;23.284;2024-01-30T06:35:15;96690.13;;;6.26;35.56
30819;BME280;17546;42.674;23.284;2024-01-30T06:37:42;96646.63;;;5.94;35.32
30819;BME280;17546;42.674;23.284;2024-01-30T06:40:08;96677.75;;;5.64;35.75
30819;BME280;17546;42.674;23.284;2024-01-30T06:42:34;96625.16;;;5.62;35.96
30819;BME280;17546;42.674;23.284;2024-01-30T06:44:59;96666.19;;;6.23;35.25
30819;BME280;17546;42.674;23.284;2024-01-30T06:47:25;96652.03;;;6.01;34.88
30819;BME280;17546;42.674;23.284;2024-01-30T06:49:51;96637.13;;;6.42;34.36
30819;BME280;17546;42.674;23.284;2024-01-30T06:52:16;96633.28;;;6.16;34.38
30819;BME280;17546;42.674;23.284;2024-01-30T06:54:41;96661.06;;;6.65;34.00
30819;BME280;17546;42.674;23.284;2024-01-30T06:57:07;96699.66;;;6.41;34.28
30819;BME280;17546;42.674;23.284;2024-01-30T06:59:37;96695.78;;;5.92;35.14
30819;BME280;17546;42.674;23.284;2024-01-30T07:02:09;96650.03;;;6.45;34.44
30819;BME280;17546;42.674;23.284;2024-01-30T07:04:34;96696.13;;;7.01;34.38
30819;BME280;17546;42.674;23.284;2024-01-30T07:07:02;96708.31;;;6.20;34.85
30819;BME280;17546;42.674;23.284;2024-01-30T07:09:28;96702.28;;;6.49;34.04
30819;BME280;17546;42.674;23.284;2024-01-30T07:11:54;96705.03;;;7.09;33.25
30819;BME280;17546;42.674;23.284;2024-01-30T07:14:20;96680.78;;;7.20;33.34
30819;BME280;17546;42.674;23.284;2024-01-30T07:16:46;96655.06;;;7.07;33.61
30819;BME280;17546;42.674;23.284;2024-01-30T07:19:11;96711.63;;;6.95;33.84
30819;BME280;17546;42.674;23.284;2024-01-30T07:21:37;96672.97;;;6.98;33.45
30819;BME280;17546;42.674;23.284;2024-01-30T07:24:03;96687.75;;;7.24;33.22
30819;BME280;17546;42.674;23.284;2024-01-30T07:26:29;96659.22;;;7.15;32.85
30819;BME280;17546;42.674;23.284;2024-01-30T07:28:54;96702.41;;;7.21;32.80
30819;BME280;17546;42.674;23.284;2024-01-30T07:31:20;96639.19;;;7.31;32.81
30819;BME280;17546;42.674;23.284;2024-01-30T07:33:48;96691.28;;;7.61;32.38
30819;BME280;17546;42.674;23.284;2024-01-30T07:36:13;96659.72;;;7.62;32.24
30819;BME280;17546;42.674;23.284;2024-01-30T07:38:39;96683.88;;;7.75;31.90
30819;BME280;17546;42.674;23.284;2024-01-30T07:41:05;96696.53;;;7.89;32.08
30819;BME280;17546;42.674;23.284;2024-01-30T07:43:31;96677.41;;;7.65;31.68
30819;BME280;17546;42.674;23.284;2024-01-30T07:45:56;96700.94;;;7.70;31.57
30819;BME280;17546;42.674;23.284;2024-01-30T07:48:21;96679.72;;;7.66;31.64
30819;BME280;17546;42.674;23.284;2024-01-30T07:50:47;96680.53;;;7.31;31.58
30819;BME280;17546;42.674;23.284;2024-01-30T07:53:12;96688.97;;;7.76;31.44
30819;BME280;17546;42.674;23.284;2024-01-30T07:55:38;96646.63;;;7.14;31.52
30819;BME280;17546;42.674;23.284;2024-01-30T07:58:04;96637.09;;;7.18;31.47
30819;BME280;17546;42.674;23.284;2024-01-30T08:00:30;96698.53;;;7.88;31.63
30819;BME280;17546;42.674;23.284;2024-01-30T08:02:55;96690.50;;;7.24;31.87
30819;BME280;17546;42.674;23.284;2024-01-30T08:05:22;96695.09;;;7.31;31.89
30819;BME280;17546;42.674;23.284;2024-01-30T08:07:48;96678.13;;;6.96;32.39
30819;BME280;17546;42.674;23.284;2024-01-30T08:10:14;96640.19;;;7.20;31.72
30819;BME280;17546;42.674;23.284;2024-01-30T08:12:40;96678.06;;;7.53;31.70
30819;BME280;17546;42.674;23.284;2024-01-30T08:15:06;96680.66;;;7.60;32.03
30819;BME280;17546;42.674;23.284;2024-01-30T08:17:32;96680.75;;;7.56;31.78
30819;BME280;17546;42.674;23.284;2024-01-30T08:19:57;96642.66;;;6.78;32.05
30819;BME280;17546;42.674;23.284;2024-01-30T08:22:22;96647.03;;;6.96;32.25
30819;BME280;17546;42.674;23.284;2024-01-30T08:24:48;96664.00;;;7.31;31.70
30819;BME280;17546;42.674;23.284;2024-01-30T08:27:13;96641.69;;;6.89;32.13
30819;BME280;17546;42.674;23.284;2024-01-30T08:29:39;96676.59;;;7.12;32.08
30819;BME280;17546;42.674;23.284;2024-01-30T08:32:05;96634.38;;;6.42;32.70
30819;BME280;17546;42.674;23.284;2024-01-30T08:34:31;96652.53;;;6.96;32.03
30819;BME280;17546;42.674;23.284;2024-01-30T08:36:57;96680.47;;;7.51;31.79
30819;BME280;17546;42.674;23.284;2024-01-30T08:39:22;96649.44;;;7.30;31.65
30819;BME280;17546;42.674;23.284;2024-01-30T08:41:48;96690.16;;;7.59;31.81
30819;BME280;17546;42.674;23.284;2024-01-30T08:44:13;96649.28;;;7.37;31.67
30819;BME280;17546;42.674;23.284;2024-01-30T08:46:39;96689.91;;;7.86;31.72
30819;BME280;17546;42.674;23.284;2024-01-30T08:49:04;96687.13;;;7.86;31.37
30819;BME280;17546;42.674;23.284;2024-01-30T08:51:30;96699.72;;;7.71;31.41
30819;BME280;17546;42.674;23.284;2024-01-30T08:53:56;96685.56;;;7.69;31.77
30819;BME280;17546;42.674;23.284;2024-01-30T08:56:21;96648.59;;;6.97;32.69
30819;BME280;17546;42.674;23.284;2024-01-30T08:58:47;96693.25;;;6.48;33.05
30819;BME280;17546;42.674;23.284;2024-01-30T09:01:12;96700.13;;;7.16;32.61
30819;BME280;17546;42.674;23.284;2024-01-30T09:03:38;96697.91;;;6.71;33.01
30819;BME280;17546;42.674;23.284;2024-01-30T09:06:12;96666.97;;;6.44;33.10
30819;BME280;17546;42.674;23.284;2024-01-30T09:08:38;96711.53;;;6.98;33.42
30819;BME280;17546;42.674;23.284;2024-01-30T09:11:12;96699.19;;;7.23;32.68
30819;BME280;17546;42.674;23.284;2024-01-30T09:13:38;96694.19;;;6.81;33.50
30819;BME280;17546;42.674;23.284;2024-01-30T09:16:03;96702.00;;;7.03;33.66
30819;BME280;17546;42.674;23.284;2024-01-30T09:18:29;96710.16;;;7.63;33.50
30819;BME280;17546;42.674;23.284;2024-01-30T09:20:55;96713.66;;;7.47;33.45
30819;BME280;17546;42.674;23.284;2024-01-30T09:23:20;96693.03;;;6.59;34.91
30819;BME280;17546;42.674;23.284;2024-01-30T09:25:47;96654.34;;;6.86;34.51
30819;BME280;17546;42.674;23.284;2024-01-30T09:28:12;96667.41;;;7.18;34.32
30819;BME280;17546;42.674;23.284;2024-01-30T09:30:38;96690.91;;;7.07;34.25
30819;BME280;17546;42.674;23.284;2024-01-30T09:33:04;96648.63;;;6.77;34.67
30819;BME280;17546;42.674;23.284;2024-01-30T09:35:30;96644.28;;;6.96;34.33
30819;BME280;17546;42.674;23.284;2024-01-30T09:37:55;96695.22;;;7.60;33.55
30819;BME280;17546;42.674;23.284;2024-01-30T09:40:22;96679.88;;;7.43;33.46
30819;BME280;17546;42.674;23.284;2024-01-30T09:42:50;96682.38;;;6.61;34.67
30819;BME280;17546;42.674;23.284;2024-01-30T09:45:18;96683.22;;;6.98;34.08
30819;BME280;17546;42.674;23.284;2024-01-30T09:47:45;96679.81;;;7.10;34.00
30819;BME280;17546;42.674;23.284;2024-01-30T09:50:13;96681.66;;;6.97;34.60
30819;BME280;17546;42.674;23.284;2024-01-30T09:52:39;96629.81;;;6.72;34.41
30819;BME280;17546;42.674;23.284;2024-01-30T09:55:06;96600.13;;;6.23;34.92
30819;BME280;17546;42.674;23.284;2024-01-30T09:57:34;96680.06;;;6.79;34.69
30819;BME280;17546;42.674;23.284;2024-01-30T09:59:59;96632.16;;;5.90;35.72
30819;BME280;17546;42.674;23.284;2024-01-30T10:02:25;96671.09;;;7.12;34.06
30819;BME280;17546;42.674;23.284;2024-01-30T10:04:51;96664.41;;;7.29;33.92
30819;BME280;17546;42.674;23.284;2024-01-30T10:07:18;96612.91;;;6.90;33.67
30819;BME280;17546;42.674;23.284;2024-01-30T10:09:43;96653.72;;;7.15;33.72
30819;BME280;17546;42.674;23.284;2024-01-30T10:12:09;96673.44;;;7.50;33.71
30819;BME280;17546;42.674;23.284;2024-01-30T10:14:42;96658.34;;;7.87;33.67
30819;BME280;17546;42.674;23.284;2024-01-30T10:17:08;96626.06;;;7.84;32.82
30819;BME280;17546;42.674;23.284;2024-01-30T10:19:35;96628.84;;;8.00;32.90
30819;BME280;17546;42.674;23.284;2024-01-30T10:22:01;96654.56;;;7.81;33.53
30819;BME280;17546;42.674;23.284;2024-01-30T10:24:27;96656.88;;;8.44;32.53
30819;BME280;17546;42.674;23.284;2024-01-30T10:26:54;96624.09;;;8.01;32.37
30819;BME280;17546;42.674;23.284;2024-01-30T10:29:20;96667.50;;;7.68;32.83
30819;BME280;17546;42.674;23.284;2024-01-30T10:31:46;96667.84;;;7.70;33.28
30819;BME280;17546;42.674;23.284;2024-01-30T10:34:12;96671.25;;;8.06;32.62
30819;BME280;17546;42.674;23.284;2024-01-30T10:36:41;96656.78;;;7.86;32.67
30819;BME280;17546;42.674;23.284;2024-01-30T10:39:08;96625.38;;;8.42;31.39
30819;BME280;17546;42.674;23.284;2024-01-30T10:41:42;96625.63;;;8.89;31.31
30819;BME280;17546;42.674;23.284;2024-01-30T10:44:09;96659.13;;;8.50;31.67
30819;BME280;17546;42.674;23.284;2024-01-30T10:46:38;96646.28;;;8.85;31.13
30819;BME280;17546;42.674;23.284;2024-01-30T10:49:04;96655.56;;;8.78;31.41
30819;BME280;17546;42.674;23.284;2024-01-30T10:51:31;96647.81;;;8.86;31.20
30819;BME280;17546;42.674;23.284;2024-01-30T10:53:57;96653.63;;;9.30;30.65
30819;BME280;17546;42.674;23.284;2024-01-30T10:56:24;96651.97;;;8.65;31.15
30819;BME280;17546;42.674;23.284;2024-01-30T10:58:53;96627.84;;;8.53;31.44
30819;BME280;17546;42.674;23.284;2024-01-30T11:01:21;96633.78;;;8.22;31.69
30819;BME280;17546;42.674;23.284;2024-01-30T11:03:51;96635.31;;;8.81;31.13
30819;BME280;17546;42.674;23.284;2024-01-30T11:06:17;96641.00;;;9.03;30.82
30819;BME280;17546;42.674;23.284;2024-01-30T11:08:45;96622.66;;;8.25;31.68
30819;BME280;17546;42.674;23.284;2024-01-30T11:11:10;96610.94;;;8.51;31.92
30819;BME280;17546;42.674;23.284;2024-01-30T11:13:36;96587.31;;;8.75;31.33
30819;BME280;17546;42.674;23.284;2024-01-30T11:16:03;96561.47;;;8.40;31.39
30819;BME280;17546;42.674;23.284;2024-01-30T11:18:29;96614.78;;;8.24;32.36
30819;BME280;17546;42.674;23.284;2024-01-30T11:20:59;96626.81;;;8.76;31.96
30819;BME280;17546;42.674;23.284;2024-01-30T11:23:30;96574.47;;;7.97;31.89
30819;BME280;17546;42.674;23.284;2024-01-30T11:25:56;96622.72;;;8.22;32.48
30819;BME280;17546;42.674;23.284;2024-01-30T11:28:22;96617.13;;;7.63;32.88
30819;BME280;17546;42.674;23.284;2024-01-30T11:30:51;96624.34;;;7.90;32.63
30819;BME280;17546;42.674;23.284;2024-01-30T11:33:28;96622.78;;;8.51;32.14
30819;BME280;17546;42.674;23.284;2024-01-30T11:35:57;96572.66;;;8.36;32.01
30819;BME280;17546;42.674;23.284;2024-01-30T11:38:25;96623.41;;;8.84;31.50
30819;BME280;17546;42.674;23.284;2024-01-30T11:40:51;96604.16;;;8.94;31.66
30819;BME280;17546;42.674;23.284;2024-01-30T11:43:18;96575.50;;;9.26;30.95
30819;BME280;17546;42.674;23.284;2024-01-30T11:45:44;96585.59;;;9.33;30.62
30819;BME280;17546;42.674;23.284;2024-01-30T11:48:11;96580.50;;;9.44;30.85
30819;BME280;17546;42.674;23.284;2024-01-30T11:50:37;96607.34;;;9.69;30.50
30819;BME280;17546;42.674;23.284;2024-01-30T11:53:04;96581.38;;;9.41;30.34
30819;BME280;17546;42.674;23.284;2024-01-30T11:55:30;96618.72;;;9.84;30.52
30819;BME280;17546;42.674;23.284;2024-01-30T11:57:59;96558.09;;;8.48;31.46
30819;BME280;17546;42.674;23.284;2024-01-30T12:00:25;96607.69;;;9.45;31.00
30819;BME280;17546;42.674;23.284;2024-01-30T12:02:52;96593.53;;;8.79;31.66
30819;BME280;17546;42.674;23.284;2024-01-30T12:05:21;96581.72;;;7.91;32.17
30819;BME280;17546;42.674;23.284;2024-01-30T12:07:50;96528.09;;;7.92;32.17
30819;BME280;17546;42.674;23.284;2024-01-30T12:10:16;96579.50;;;9.25;31.15
30819;BME280;17546;42.674;23.284;2024-01-30T12:12:46;96563.34;;;7.06;33.65
30819;BME280;17546;42.674;23.284;2024-01-30T12:15:13;96564.41;;;7.29;33.65
30819;BME280;17546;42.674;23.284;2024-01-30T12:17:39;96565.97;;;8.21;32.46
30819;BME280;17546;42.674;23.284;2024-01-30T12:20:08;96571.56;;;7.88;33.33
30819;BME280;17546;42.674;23.284;2024-01-30T12:22:41;96530.25;;;7.72;32.69
30819;BME280;17546;42.674;23.284;2024-01-30T12:25:14;96549.44;;;8.04;32.80
30819;BME280;17546;42.674;23.284;2024-01-30T12:27:43;96568.66;;;8.37;32.77
30819;BME280;17546;42.674;23.284;2024-01-30T12:30:10;96559.66;;;7.91;33.19
30819;BME280;17546;42.674;23.284;2024-01-30T12:32:38;96523.16;;;8.00;32.66
30819;BME280;17546;42.674;23.284;2024-01-30T12:35:07;96555.00;;;8.17;33.05
30819;BME280;17546;42.674;23.284;2024-01-30T12:37:34;96556.28;;;7.38;33.53
30819;BME280;17546;42.674;23.284;2024-01-30T12:39:59;96517.81;;;6.65;34.81
30819;BME280;17546;42.674;23.284;2024-01-30T12:42:26;96552.50;;;6.99;34.64
30819;BME280;17546;42.674;23.284;2024-01-30T12:44:52;96514.78;;;7.74;32.99
30819;BME280;17546;42.674;23.284;2024-01-30T12:47:18;96547.97;;;7.87;33.25
30819;BME280;17546;42.674;23.284;2024-01-30T12:49:46;96544.81;;;8.01;33.32
30819;BME280;17546;42.674;23.284;2024-01-30T12:52:12;96555.06;;;8.01;33.16
30819;BME280;17546;42.674;23.284;2024-01-30T12:54:38;96534.06;;;8.33;32.63